sensor_id;sensor_type;location;lat;lon;timestamp;temperature;humidity
9760;DHT22;4919;48.792;9.202;2022-10-30T00:00:39;13.30;99.90
9760;DHT22;4919;48.792;9.202;2022-10-30T00:03:10;13.20;99.90
9760;DHT22;4919;48.792;9.202;2022-10-30T00:05:56;13.30;99.90
9760;DHT22;4919;48.792;9.202;2022-10-30T00:08:23;13.20;99.90
9760;DHT22;4919;48.792;9.202;2022-10-30T00:10:53;13.10;99.90
9760;DHT22;4919;48.792;9.202;2022-10-30T00:13:20;13.10;99.90
9760;DHT22;4919;48.792;9.202;2022-10-30T00:15:49;13.20;99.90
9760;DHT22;4919;48.792;9.202;2022-10-30T00:18:16;13.10;99.90
9760;DHT22;4919;48.792;9.202;2022-10-30T00:20:43;13.10;99.90
9760;DHT22;4919;48.792;9.202;2022-10-30T00:23:10;12.90;99.90
9760;DHT22;4919;48.792;9.202;2022-10-30T00:25:37;13.10;99.90
9760;DHT22;4919;48.792;9.202;2022-10-30T00:28:05;13.00;99.90
9760;DHT22;4919;48.792;9.202;2022-10-30T00:30:33;13.20;99.90
9760;DHT22;4919;48.792;9.202;2022-10-30T00:33:00;13.10;99.90
9760;DHT22;4919;48.792;9.202;2022-10-30T00:35:28;13.00;99.90
9760;DHT22;4919;48.792;9.202;2022-10-30T00:37:54;12.90;99.90
9760;DHT22;4919;48.792;9.202;2022-10-30T00:40:22;12.80;99.90
9760;DHT22;4919;48.792;9.202;2022-10-30T00:42:49;12.70;99.90
9760;DHT22;4919;48.792;9.202;2022-10-30T00:45:17;12.70;99.90
9760;DHT22;4919;48.792;9.202;2022-10-30T00:47:50;12.60;99.90
9760;DHT22;4919;48.792;9.202;2022-10-30T00:50:26;12.50;99.90
9760;DHT22;4919;48.792;9.202;2022-10-30T00:53:03;12.50;99.90
9760;DHT22;4919;48.792;9.202;2022-10-30T00:55:36;12.50;99.90
9760;DHT22;4919;48.792;9.202;2022-10-30T00:58:08;12.40;99.90
9760;DHT22;4919;48.792;9.202;2022-10-30T01:00:38;12.40;99.90
9760;DHT22;4919;48.792;9.202;2022-10-30T01:03:07;12.40;99.90
9760;DHT22;4919;48.792;9.202;2022-10-30T01:05:34;12.40;99.90
9760;DHT22;4919;48.792;9.202;2022-10-30T01:08:02;12.40;99.90
9760;DHT22;4919;48.792;9.202;2022-10-30T01:10:29;12.40;99.90
9760;DHT22;4919;48.792;9.202;2022-10-30T01:12:57;12.50;99.90
9760;DHT22;4919;48.792;9.202;2022-10-30T01:15:32;12.40;99.90
9760;DHT22;4919;48.792;9.202;2022-10-30T01:18:12;12.40;99.90
9760;DHT22;4919;48.792;9.202;2022-10-30T01:21:31;12.40;99.90
9760;DHT22;4919;48.792;9.202;2022-10-30T01:26:20;12.40;99.90
9760;DHT22;4919;48.792;9.202;2022-10-30T01:35:01;12.50;99.90
9760;DHT22;4919;48.792;9.202;2022-10-30T01:37:37;12.50;99.90
9760;DHT22;4919;48.792;9.202;2022-10-30T01:40:11;12.50;99.90
9760;DHT22;4919;48.792;9.202;2022-10-30T01:43:08;12.50;99.90
9760;DHT22;4919;48.792;9.202;2022-10-30T01:45:45;12.60;99.90
9760;DHT22;4919;48.792;9.202;2022-10-30T01:59:38;12.70;99.90
9760;DHT22;4919;48.792;9.202;2022-10-30T02:02:06;12.60;99.90
9760;DHT22;4919;48.792;9.202;2022-10-30T02:04:33;12.60;99.90
9760;DHT22;4919;48.792;9.202;2022-10-30T02:07:00;12.50;99.90
9760;DHT22;4919;48.792;9.202;2022-10-30T02:09:28;12.50;99.90
9760;DHT22;4919;48.792;9.202;2022-10-30T02:11:55;12.50;99.90
9760;DHT22;4919;48.792;9.202;2022-10-30T02:14:32;12.60;99.90
9760;DHT22;4919;48.792;9.202;2022-10-30T02:17:03;12.60;99.90
9760;DHT22;4919;48.792;9.202;2022-10-30T02:19:31;12.60;99.90
9760;DHT22;4919;48.792;9.202;2022-10-30T02:22:01;12.70;99.90
9760;DHT22;4919;48.792;9.202;2022-10-30T02:24:29;12.70;99.90
9760;DHT22;4919;48.792;9.202;2022-10-30T02:26:55;12.50;99.90
9760;DHT22;4919;48.792;9.202;2022-10-30T02:29:22;12.70;99.90
9760;DHT22;4919;48.792;9.202;2022-10-30T02:31:49;12.70;99.90
9760;DHT22;4919;48.792;9.202;2022-10-30T02:34:16;12.80;99.90
9760;DHT22;4919;48.792;9.202;2022-10-30T02:36:43;12.80;99.90
9760;DHT22;4919;48.792;9.202;2022-10-30T02:39:10;12.70;99.90
9760;DHT22;4919;48.792;9.202;2022-10-30T02:41:37;12.80;99.90
9760;DHT22;4919;48.792;9.202;2022-10-30T02:44:04;12.80;99.90
9760;DHT22;4919;48.792;9.202;2022-10-30T02:46:33;12.80;99.90
9760;DHT22;4919;48.792;9.202;2022-10-30T02:49:00;12.80;99.90
9760;DHT22;4919;48.792;9.202;2022-10-30T02:51:30;12.70;99.90
9760;DHT22;4919;48.792;9.202;2022-10-30T02:53:58;12.70;99.90
9760;DHT22;4919;48.792;9.202;2022-10-30T02:56:25;12.60;99.90
9760;DHT22;4919;48.792;9.202;2022-10-30T02:58:54;12.50;99.90
9760;DHT22;4919;48.792;9.202;2022-10-30T03:01:22;12.50;99.90
9760;DHT22;4919;48.792;9.202;2022-10-30T03:03:52;12.40;99.90
9760;DHT22;4919;48.792;9.202;2022-10-30T03:06:19;12.40;99.90
9760;DHT22;4919;48.792;9.202;2022-10-30T03:08:46;12.40;99.90
9760;DHT22;4919;48.792;9.202;2022-10-30T03:11:15;12.30;99.90
9760;DHT22;4919;48.792;9.202;2022-10-30T03:13:43;12.20;99.90
9760;DHT22;4919;48.792;9.202;2022-10-30T03:16:13;12.20;99.90
9760;DHT22;4919;48.792;9.202;2022-10-30T03:18:41;12.20;99.90
9760;DHT22;4919;48.792;9.202;2022-10-30T03:21:13;12.30;99.90
9760;DHT22;4919;48.792;9.202;2022-10-30T03:23:42;12.50;99.90
9760;DHT22;4919;48.792;9.202;2022-10-30T03:26:09;12.40;99.90
9760;DHT22;4919;48.792;9.202;2022-10-30T03:28:45;12.50;99.90
9760;DHT22;4919;48.792;9.202;2022-10-30T03:31:15;12.40;99.90
9760;DHT22;4919;48.792;9.202;2022-10-30T03:33:43;12.30;99.90
9760;DHT22;4919;48.792;9.202;2022-10-30T03:36:12;12.30;99.90
9760;DHT22;4919;48.792;9.202;2022-10-30T03:38:40;12.30;99.90
9760;DHT22;4919;48.792;9.202;2022-10-30T03:41:08;12.50;99.90
9760;DHT22;4919;48.792;9.202;2022-10-30T03:43:35;12.60;99.90
9760;DHT22;4919;48.792;9.202;2022-10-30T03:46:02;12.70;99.90
9760;DHT22;4919;48.792;9.202;2022-10-30T03:48:30;12.70;99.90
9760;DHT22;4919;48.792;9.202;2022-10-30T03:50:58;12.80;99.90
9760;DHT22;4919;48.792;9.202;2022-10-30T03:53:28;12.80;99.90
9760;DHT22;4919;48.792;9.202;2022-10-30T03:56:00;12.80;99.90
9760;DHT22;4919;48.792;9.202;2022-10-30T03:58:35;12.90;99.90
9760;DHT22;4919;48.792;9.202;2022-10-30T04:01:06;12.80;99.90
9760;DHT22;4919;48.792;9.202;2022-10-30T04:03:37;12.80;99.90
9760;DHT22;4919;48.792;9.202;2022-10-30T04:06:06;12.80;99.90
9760;DHT22;4919;48.792;9.202;2022-10-30T04:08:33;12.80;99.90
9760;DHT22;4919;48.792;9.202;2022-10-30T04:11:01;12.80;99.90
9760;DHT22;4919;48.792;9.202;2022-10-30T04:13:28;12.80;99.90
9760;DHT22;4919;48.792;9.202;2022-10-30T04:15:55;12.80;99.90
9760;DHT22;4919;48.792;9.202;2022-10-30T04:18:24;12.80;99.90
9760;DHT22;4919;48.792;9.202;2022-10-30T04:20:52;12.80;99.90
9760;DHT22;4919;48.792;9.202;2022-10-30T04:23:20;12.80;99.90
9760;DHT22;4919;48.792;9.202;2022-10-30T04:25:47;12.80;99.90
9760;DHT22;4919;48.792;9.202;2022-10-30T04:28:14;12.80;99.90
9760;DHT22;4919;48.792;9.202;2022-10-30T04:30:41;12.70;99.90
9760;DHT22;4919;48.792;9.202;2022-10-30T04:33:12;12.70;99.90
9760;DHT22;4919;48.792;9.202;2022-10-30T04:35:41;12.60;99.90
9760;DHT22;4919;48.792;9.202;2022-10-30T04:38:14;12.50;99.90
9760;DHT22;4919;48.792;9.202;2022-10-30T04:40:43;12.60;99.90
9760;DHT22;4919;48.792;9.202;2022-10-30T04:43:12;12.50;99.90
9760;DHT22;4919;48.792;9.202;2022-10-30T04:45:40;12.40;99.90
9760;DHT22;4919;48.792;9.202;2022-10-30T04:48:14;12.40;99.90
9760;DHT22;4919;48.792;9.202;2022-10-30T04:50:43;12.50;99.90
9760;DHT22;4919;48.792;9.202;2022-10-30T04:53:16;12.40;99.90
9760;DHT22;4919;48.792;9.202;2022-10-30T04:55:46;12.40;99.90
9760;DHT22;4919;48.792;9.202;2022-10-30T04:58:13;12.30;99.90
9760;DHT22;4919;48.792;9.202;2022-10-30T05:00:44;12.40;99.90
9760;DHT22;4919;48.792;9.202;2022-10-30T05:03:21;12.40;99.90
9760;DHT22;4919;48.792;9.202;2022-10-30T05:05:56;12.40;99.90
9760;DHT22;4919;48.792;9.202;2022-10-30T05:08:24;12.30;99.90
9760;DHT22;4919;48.792;9.202;2022-10-30T05:10:52;12.40;99.90
9760;DHT22;4919;48.792;9.202;2022-10-30T05:13:19;12.30;99.90
9760;DHT22;4919;48.792;9.202;2022-10-30T05:15:46;12.30;99.90
9760;DHT22;4919;48.792;9.202;2022-10-30T05:18:13;12.40;99.90
9760;DHT22;4919;48.792;9.202;2022-10-30T05:20:40;12.40;99.90
9760;DHT22;4919;48.792;9.202;2022-10-30T05:23:08;12.40;99.90
9760;DHT22;4919;48.792;9.202;2022-10-30T05:25:35;12.40;99.90
9760;DHT22;4919;48.792;9.202;2022-10-30T05:28:05;12.40;99.90
9760;DHT22;4919;48.792;9.202;2022-10-30T05:30:40;12.40;99.90
9760;DHT22;4919;48.792;9.202;2022-10-30T05:33:16;12.40;99.90
9760;DHT22;4919;48.792;9.202;2022-10-30T05:35:43;12.40;99.90
9760;DHT22;4919;48.792;9.202;2022-10-30T05:38:10;12.30;99.90
9760;DHT22;4919;48.792;9.202;2022-10-30T05:40:38;12.40;99.90
9760;DHT22;4919;48.792;9.202;2022-10-30T05:43:05;12.30;99.90
9760;DHT22;4919;48.792;9.202;2022-10-30T05:45:33;12.30;99.90
9760;DHT22;4919;48.792;9.202;2022-10-30T05:48:03;12.30;99.90
9760;DHT22;4919;48.792;9.202;2022-10-30T05:50:37;12.40;99.90
9760;DHT22;4919;48.792;9.202;2022-10-30T05:53:17;12.50;99.90
9760;DHT22;4919;48.792;9.202;2022-10-30T05:55:44;12.60;99.90
9760;DHT22;4919;48.792;9.202;2022-10-30T05:58:18;12.60;99.90
9760;DHT22;4919;48.792;9.202;2022-10-30T06:00:46;12.60;99.90
9760;DHT22;4919;48.792;9.202;2022-10-30T06:03:19;12.70;99.90
9760;DHT22;4919;48.792;9.202;2022-10-30T06:05:46;12.70;99.90
9760;DHT22;4919;48.792;9.202;2022-10-30T06:08:15;12.70;99.90
9760;DHT22;4919;48.792;9.202;2022-10-30T06:10:42;12.70;99.90
9760;DHT22;4919;48.792;9.202;2022-10-30T06:13:15;12.60;99.90
9760;DHT22;4919;48.792;9.202;2022-10-30T06:16:12;12.60;99.90
9760;DHT22;4919;48.792;9.202;2022-10-30T06:19:05;12.70;99.90
9760;DHT22;4919;48.792;9.202;2022-10-30T06:21:34;12.70;99.90
9760;DHT22;4919;48.792;9.202;2022-10-30T06:24:11;12.70;99.90
9760;DHT22;4919;48.792;9.202;2022-10-30T06:27:01;12.70;99.90
9760;DHT22;4919;48.792;9.202;2022-10-30T06:29:28;12.70;99.90
9760;DHT22;4919;48.792;9.202;2022-10-30T06:31:55;12.70;99.90
9760;DHT22;4919;48.792;9.202;2022-10-30T06:34:25;12.70;99.90
9760;DHT22;4919;48.792;9.202;2022-10-30T06:36:53;12.70;99.90
9760;DHT22;4919;48.792;9.202;2022-10-30T06:39:20;12.70;99.90
9760;DHT22;4919;48.792;9.202;2022-10-30T06:42:06;12.80;99.90
9760;DHT22;4919;48.792;9.202;2022-10-30T06:44:52;12.80;99.90
9760;DHT22;4919;48.792;9.202;2022-10-30T06:47:19;12.80;99.90
9760;DHT22;4919;48.792;9.202;2022-10-30T06:49:47;12.80;99.90
9760;DHT22;4919;48.792;9.202;2022-10-30T06:52:14;12.80;99.90
9760;DHT22;4919;48.792;9.202;2022-10-30T06:54:41;12.80;99.90
9760;DHT22;4919;48.792;9.202;2022-10-30T06:57:34;12.80;99.90
9760;DHT22;4919;48.792;9.202;2022-10-30T07:00:11;12.80;99.90
9760;DHT22;4919;48.792;9.202;2022-10-30T07:03:09;12.90;99.90
9760;DHT22;4919;48.792;9.202;2022-10-30T07:05:37;13.00;99.90
9760;DHT22;4919;48.792;9.202;2022-10-30T07:08:04;13.10;99.90
9760;DHT22;4919;48.792;9.202;2022-10-30T07:10:32;13.20;99.90
9760;DHT22;4919;48.792;9.202;2022-10-30T07:13:17;13.30;99.90
9760;DHT22;4919;48.792;9.202;2022-10-30T07:16:04;13.40;99.90
9760;DHT22;4919;48.792;9.202;2022-10-30T07:18:35;13.50;99.90
9760;DHT22;4919;48.792;9.202;2022-10-30T07:21:04;13.50;99.90
9760;DHT22;4919;48.792;9.202;2022-10-30T07:23:31;13.60;99.90
9760;DHT22;4919;48.792;9.202;2022-10-30T07:26:13;13.60;99.90
9760;DHT22;4919;48.792;9.202;2022-10-30T07:28:45;13.70;99.90
9760;DHT22;4919;48.792;9.202;2022-10-30T07:31:14;13.80;99.90
9760;DHT22;4919;48.792;9.202;2022-10-30T07:34:13;13.80;99.90
9760;DHT22;4919;48.792;9.202;2022-10-30T07:36:47;13.80;99.90
9760;DHT22;4919;48.792;9.202;2022-10-30T07:39:46;13.90;99.90
9760;DHT22;4919;48.792;9.202;2022-10-30T07:42:20;13.90;99.90
9760;DHT22;4919;48.792;9.202;2022-10-30T07:45:06;14.00;99.90
9760;DHT22;4919;48.792;9.202;2022-10-30T07:47:42;13.90;99.90
9760;DHT22;4919;48.792;9.202;2022-10-30T07:50:17;14.00;99.90
9760;DHT22;4919;48.792;9.202;2022-10-30T07:52:44;14.10;99.90
9760;DHT22;4919;48.792;9.202;2022-10-30T07:55:12;14.20;99.90
9760;DHT22;4919;48.792;9.202;2022-10-30T07:57:42;14.30;99.90
9760;DHT22;4919;48.792;9.202;2022-10-30T08:00:31;14.30;99.90
9760;DHT22;4919;48.792;9.202;2022-10-30T08:03:08;14.40;99.90
9760;DHT22;4919;48.792;9.202;2022-10-30T08:05:43;14.40;99.90
9760;DHT22;4919;48.792;9.202;2022-10-30T08:08:12;14.30;99.90
9760;DHT22;4919;48.792;9.202;2022-10-30T08:10:39;14.40;99.90
9760;DHT22;4919;48.792;9.202;2022-10-30T08:13:06;14.40;99.90
9760;DHT22;4919;48.792;9.202;2022-10-30T08:15:33;14.40;99.90
9760;DHT22;4919;48.792;9.202;2022-10-30T08:18:01;14.50;99.90
9760;DHT22;4919;48.792;9.202;2022-10-30T08:20:28;14.60;99.90
9760;DHT22;4919;48.792;9.202;2022-10-30T08:22:56;14.80;99.90
9760;DHT22;4919;48.792;9.202;2022-10-30T08:25:26;14.90;99.90
9760;DHT22;4919;48.792;9.202;2022-10-30T08:28:05;15.10;99.90
9760;DHT22;4919;48.792;9.202;2022-10-30T08:30:35;15.30;99.90
9760;DHT22;4919;48.792;9.202;2022-10-30T08:33:06;15.40;99.90
9760;DHT22;4919;48.792;9.202;2022-10-30T08:35:53;15.50;99.90
9760;DHT22;4919;48.792;9.202;2022-10-30T08:38:23;15.60;99.90
9760;DHT22;4919;48.792;9.202;2022-10-30T08:41:08;15.70;99.90
9760;DHT22;4919;48.792;9.202;2022-10-30T08:43:42;16.00;99.90
9760;DHT22;4919;48.792;9.202;2022-10-30T08:46:09;16.20;99.90
9760;DHT22;4919;48.792;9.202;2022-10-30T08:48:36;16.30;99.90
9760;DHT22;4919;48.792;9.202;2022-10-30T08:51:03;16.30;99.90
9760;DHT22;4919;48.792;9.202;2022-10-30T08:53:34;16.40;99.90
9760;DHT22;4919;48.792;9.202;2022-10-30T08:56:06;16.30;99.90
9760;DHT22;4919;48.792;9.202;2022-10-30T08:58:50;16.30;99.90
9760;DHT22;4919;48.792;9.202;2022-10-30T09:01:17;16.50;99.90
9760;DHT22;4919;48.792;9.202;2022-10-30T09:04:06;16.40;99.90
9760;DHT22;4919;48.792;9.202;2022-10-30T09:06:48;16.30;99.90
9760;DHT22;4919;48.792;9.202;2022-10-30T09:09:35;16.40;99.90
9760;DHT22;4919;48.792;9.202;2022-10-30T09:12:02;16.50;99.90
9760;DHT22;4919;48.792;9.202;2022-10-30T09:14:35;16.80;99.90
9760;DHT22;4919;48.792;9.202;2022-10-30T09:17:02;16.90;99.90
9760;DHT22;4919;48.792;9.202;2022-10-30T09:19:30;17.20;99.90
9760;DHT22;4919;48.792;9.202;2022-10-30T09:21:58;17.50;99.90
9760;DHT22;4919;48.792;9.202;2022-10-30T09:24:25;17.70;99.90
9760;DHT22;4919;48.792;9.202;2022-10-30T09:26:54;17.90;99.90
9760;DHT22;4919;48.792;9.202;2022-10-30T09:29:25;18.10;99.90
9760;DHT22;4919;48.792;9.202;2022-10-30T09:32:08;18.30;99.90
9760;DHT22;4919;48.792;9.202;2022-10-30T09:34:59;18.50;99.90
9760;DHT22;4919;48.792;9.202;2022-10-30T09:37:37;18.80;99.90
9760;DHT22;4919;48.792;9.202;2022-10-30T09:46:27;19.10;99.90
9760;DHT22;4919;48.792;9.202;2022-10-30T09:49:20;19.20;99.90
9760;DHT22;4919;48.792;9.202;2022-10-30T10:08:40;19.60;99.90
9760;DHT22;4919;48.792;9.202;2022-10-30T10:11:39;19.70;99.90
9760;DHT22;4919;48.792;9.202;2022-10-30T10:14:15;19.70;99.90
9760;DHT22;4919;48.792;9.202;2022-10-30T10:16:47;19.70;99.90
9760;DHT22;4919;48.792;9.202;2022-10-30T10:19:19;19.80;99.90
9760;DHT22;4919;48.792;9.202;2022-10-30T10:22:00;19.70;99.90
9760;DHT22;4919;48.792;9.202;2022-10-30T10:24:36;19.90;99.90
9760;DHT22;4919;48.792;9.202;2022-10-30T10:30:18;19.90;99.90
9760;DHT22;4919;48.792;9.202;2022-10-30T10:39:13;20.50;99.90
9760;DHT22;4919;48.792;9.202;2022-10-30T10:45:11;20.30;99.90
9760;DHT22;4919;48.792;9.202;2022-10-30T10:47:58;20.20;99.90
9760;DHT22;4919;48.792;9.202;2022-10-30T10:50:44;20.40;99.90
9760;DHT22;4919;48.792;9.202;2022-10-30T10:53:21;20.30;99.90
9760;DHT22;4919;48.792;9.202;2022-10-30T10:55:53;20.40;99.90
9760;DHT22;4919;48.792;9.202;2022-10-30T10:58:59;20.40;99.90
9760;DHT22;4919;48.792;9.202;2022-10-30T11:01:23;20.70;99.90
9760;DHT22;4919;48.792;9.202;2022-10-30T11:04:13;20.60;99.90
9760;DHT22;4919;48.792;9.202;2022-10-30T11:06:48;20.60;99.90
9760;DHT22;4919;48.792;9.202;2022-10-30T11:09:23;20.60;99.90
9760;DHT22;4919;48.792;9.202;2022-10-30T11:11:53;20.70;99.90
9760;DHT22;4919;48.792;9.202;2022-10-30T11:14:28;20.80;99.90
9760;DHT22;4919;48.792;9.202;2022-10-30T11:17:02;20.70;99.90
9760;DHT22;4919;48.792;9.202;2022-10-30T11:19:30;20.70;99.90
9760;DHT22;4919;48.792;9.202;2022-10-30T11:21:58;20.70;99.90
9760;DHT22;4919;48.792;9.202;2022-10-30T11:24:35;20.80;99.90
9760;DHT22;4919;48.792;9.202;2022-10-30T11:30:02;20.90;99.90
9760;DHT22;4919;48.792;9.202;2022-10-30T11:32:32;20.90;99.90
9760;DHT22;4919;48.792;9.202;2022-10-30T11:37:38;20.90;99.90
9760;DHT22;4919;48.792;9.202;2022-10-30T11:45:29;20.90;99.90
9760;DHT22;4919;48.792;9.202;2022-10-30T11:47:58;20.90;99.90
9760;DHT22;4919;48.792;9.202;2022-10-30T11:50:30;21.00;99.90
9760;DHT22;4919;48.792;9.202;2022-10-30T11:53:09;21.00;99.90
9760;DHT22;4919;48.792;9.202;2022-10-30T11:55:40;20.90;99.90
9760;DHT22;4919;48.792;9.202;2022-10-30T11:58:23;21.00;99.90
9760;DHT22;4919;48.792;9.202;2022-10-30T12:01:01;21.00;99.90
9760;DHT22;4919;48.792;9.202;2022-10-30T12:03:35;21.10;99.90
9760;DHT22;4919;48.792;9.202;2022-10-30T12:06:27;21.20;99.90
9760;DHT22;4919;48.792;9.202;2022-10-30T12:09:20;21.20;99.90
9760;DHT22;4919;48.792;9.202;2022-10-30T12:11:48;21.30;99.90
9760;DHT22;4919;48.792;9.202;2022-10-30T12:14:20;21.30;99.90
9760;DHT22;4919;48.792;9.202;2022-10-30T12:16:52;21.30;99.90
9760;DHT22;4919;48.792;9.202;2022-10-30T12:19:23;21.40;99.90
9760;DHT22;4919;48.792;9.202;2022-10-30T12:21:53;21.40;99.90
9760;DHT22;4919;48.792;9.202;2022-10-30T12:24:31;21.40;99.90
9760;DHT22;4919;48.792;9.202;2022-10-30T12:27:02;21.30;99.90
9760;DHT22;4919;48.792;9.202;2022-10-30T12:29:44;21.40;99.90
9760;DHT22;4919;48.792;9.202;2022-10-30T12:32:48;21.40;99.90
9760;DHT22;4919;48.792;9.202;2022-10-30T12:35:33;21.40;99.90
9760;DHT22;4919;48.792;9.202;2022-10-30T12:38:05;21.40;99.90
9760;DHT22;4919;48.792;9.202;2022-10-30T12:40:37;21.40;99.90
9760;DHT22;4919;48.792;9.202;2022-10-30T12:45:40;21.50;99.90
9760;DHT22;4919;48.792;9.202;2022-10-30T12:50:46;21.60;99.90
9760;DHT22;4919;48.792;9.202;2022-10-30T12:56:21;21.50;99.90
9760;DHT22;4919;48.792;9.202;2022-10-30T13:04:39;21.60;99.90
9760;DHT22;4919;48.792;9.202;2022-10-30T13:07:22;21.60;99.90
9760;DHT22;4919;48.792;9.202;2022-10-30T13:12:31;21.60;99.90
9760;DHT22;4919;48.792;9.202;2022-10-30T13:15:13;21.50;99.90
9760;DHT22;4919;48.792;9.202;2022-10-30T13:17:43;21.50;99.90
9760;DHT22;4919;48.792;9.202;2022-10-30T13:20:12;21.60;99.90
9760;DHT22;4919;48.792;9.202;2022-10-30T13:23:14;21.50;99.90
9760;DHT22;4919;48.792;9.202;2022-10-30T13:28:40;21.50;99.90
9760;DHT22;4919;48.792;9.202;2022-10-30T13:37:04;21.40;99.90
9760;DHT22;4919;48.792;9.202;2022-10-30T13:39:40;21.40;99.90
9760;DHT22;4919;48.792;9.202;2022-10-30T13:42:12;21.30;99.90
9760;DHT22;4919;48.792;9.202;2022-10-30T13:45:18;21.30;99.90
9760;DHT22;4919;48.792;9.202;2022-10-30T13:48:21;21.40;99.90
9760;DHT22;4919;48.792;9.202;2022-10-30T13:53:35;21.30;99.90
9760;DHT22;4919;48.792;9.202;2022-10-30T13:56:03;21.20;99.90
9760;DHT22;4919;48.792;9.202;2022-10-30T13:58:39;21.30;99.90
9760;DHT22;4919;48.792;9.202;2022-10-30T14:01:18;21.20;99.90
9760;DHT22;4919;48.792;9.202;2022-10-30T14:04:22;21.30;99.90
9760;DHT22;4919;48.792;9.202;2022-10-30T14:09:40;21.20;99.90
9760;DHT22;4919;48.792;9.202;2022-10-30T14:12:49;21.20;99.90
9760;DHT22;4919;48.792;9.202;2022-10-30T14:15:32;21.00;99.90
9760;DHT22;4919;48.792;9.202;2022-10-30T14:18:23;20.90;99.90
9760;DHT22;4919;48.792;9.202;2022-10-30T14:20:51;20.70;99.90
9760;DHT22;4919;48.792;9.202;2022-10-30T14:28:32;20.40;99.90
9760;DHT22;4919;48.792;9.202;2022-10-30T14:31:12;20.40;99.90
9760;DHT22;4919;48.792;9.202;2022-10-30T14:36:22;20.20;99.90
9760;DHT22;4919;48.792;9.202;2022-10-30T14:41:53;19.90;99.90
9760;DHT22;4919;48.792;9.202;2022-10-30T14:45:43;19.70;99.90
9760;DHT22;4919;48.792;9.202;2022-10-30T14:48:15;19.50;99.90
9760;DHT22;4919;48.792;9.202;2022-10-30T14:51:18;19.40;99.90
9760;DHT22;4919;48.792;9.202;2022-10-30T14:56:44;19.10;99.90
9760;DHT22;4919;48.792;9.202;2022-10-30T15:10:25;18.40;99.90
9760;DHT22;4919;48.792;9.202;2022-10-30T15:13:04;18.30;99.90
9760;DHT22;4919;48.792;9.202;2022-10-30T15:15:32;18.20;99.90
9760;DHT22;4919;48.792;9.202;2022-10-30T15:18:06;18.10;99.90
9760;DHT22;4919;48.792;9.202;2022-10-30T15:20:36;18.00;99.90
9760;DHT22;4919;48.792;9.202;2022-10-30T15:23:09;17.80;99.90
9760;DHT22;4919;48.792;9.202;2022-10-30T15:25:54;17.70;99.90
9760;DHT22;4919;48.792;9.202;2022-10-30T15:28:25;17.60;99.90
9760;DHT22;4919;48.792;9.202;2022-10-30T15:31:12;17.50;99.90
9760;DHT22;4919;48.792;9.202;2022-10-30T15:33:46;17.40;99.90
9760;DHT22;4919;48.792;9.202;2022-10-30T15:36:21;17.30;99.90
9760;DHT22;4919;48.792;9.202;2022-10-30T15:46:58;16.80;99.90
9760;DHT22;4919;48.792;9.202;2022-10-30T15:52:24;16.60;99.90
9760;DHT22;4919;48.792;9.202;2022-10-30T15:55:02;16.50;99.90
9760;DHT22;4919;48.792;9.202;2022-10-30T15:57:35;16.40;99.90
9760;DHT22;4919;48.792;9.202;2022-10-30T16:00:30;16.20;99.90
9760;DHT22;4919;48.792;9.202;2022-10-30T16:03:18;16.20;99.90
9760;DHT22;4919;48.792;9.202;2022-10-30T16:05:45;16.10;99.90
9760;DHT22;4919;48.792;9.202;2022-10-30T16:08:20;16.00;99.90
9760;DHT22;4919;48.792;9.202;2022-10-30T16:10:50;15.90;99.90
9760;DHT22;4919;48.792;9.202;2022-10-30T16:13:22;15.90;99.90
9760;DHT22;4919;48.792;9.202;2022-10-30T16:15:50;15.80;99.90
9760;DHT22;4919;48.792;9.202;2022-10-30T16:18:23;15.70;99.90
9760;DHT22;4919;48.792;9.202;2022-10-30T16:20:57;15.60;99.90
9760;DHT22;4919;48.792;9.202;2022-10-30T16:23:29;15.60;99.90
9760;DHT22;4919;48.792;9.202;2022-10-30T16:25:57;15.50;99.90
9760;DHT22;4919;48.792;9.202;2022-10-30T16:28:35;15.40;99.90
9760;DHT22;4919;48.792;9.202;2022-10-30T16:31:07;15.40;99.90
9760;DHT22;4919;48.792;9.202;2022-10-30T16:33:42;15.30;99.90
9760;DHT22;4919;48.792;9.202;2022-10-30T16:36:16;15.30;99.90
9760;DHT22;4919;48.792;9.202;2022-10-30T16:38:46;15.20;99.90
9760;DHT22;4919;48.792;9.202;2022-10-30T16:41:14;15.10;99.90
9760;DHT22;4919;48.792;9.202;2022-10-30T16:43:42;15.00;99.90
9760;DHT22;4919;48.792;9.202;2022-10-30T16:48:45;14.90;99.90
9760;DHT22;4919;48.792;9.202;2022-10-30T16:51:15;14.90;99.90
9760;DHT22;4919;48.792;9.202;2022-10-30T16:53:48;14.80;99.90
9760;DHT22;4919;48.792;9.202;2022-10-30T16:56:24;14.80;99.90
9760;DHT22;4919;48.792;9.202;2022-10-30T16:58:54;14.70;99.90
9760;DHT22;4919;48.792;9.202;2022-10-30T17:01:26;14.70;99.90
9760;DHT22;4919;48.792;9.202;2022-10-30T17:03:54;14.60;99.90
9760;DHT22;4919;48.792;9.202;2022-10-30T17:06:27;14.50;99.90
9760;DHT22;4919;48.792;9.202;2022-10-30T17:08:57;14.50;99.90
9760;DHT22;4919;48.792;9.202;2022-10-30T17:11:40;14.40;99.90
9760;DHT22;4919;48.792;9.202;2022-10-30T17:14:18;14.40;99.90
9760;DHT22;4919;48.792;9.202;2022-10-30T17:16:53;14.30;99.90
9760;DHT22;4919;48.792;9.202;2022-10-30T17:22:01;14.30;99.90
9760;DHT22;4919;48.792;9.202;2022-10-30T17:24:31;14.20;99.90
9760;DHT22;4919;48.792;9.202;2022-10-30T17:27:01;14.20;99.90
9760;DHT22;4919;48.792;9.202;2022-10-30T17:32:17;14.10;99.90
9760;DHT22;4919;48.792;9.202;2022-10-30T17:34:45;14.00;99.90
9760;DHT22;4919;48.792;9.202;2022-10-30T17:37:12;14.00;99.90
9760;DHT22;4919;48.792;9.202;2022-10-30T17:39:39;14.00;99.90
9760;DHT22;4919;48.792;9.202;2022-10-30T17:42:08;13.90;99.90
9760;DHT22;4919;48.792;9.202;2022-10-30T17:44:35;13.80;99.90
9760;DHT22;4919;48.792;9.202;2022-10-30T17:47:17;13.80;99.90
9760;DHT22;4919;48.792;9.202;2022-10-30T17:49:45;13.70;99.90
9760;DHT22;4919;48.792;9.202;2022-10-30T17:52:15;13.60;99.90
9760;DHT22;4919;48.792;9.202;2022-10-30T17:54:42;13.60;99.90
9760;DHT22;4919;48.792;9.202;2022-10-30T17:57:10;13.60;99.90
9760;DHT22;4919;48.792;9.202;2022-10-30T17:59:38;13.60;99.90
9760;DHT22;4919;48.792;9.202;2022-10-30T18:02:12;13.60;99.90
9760;DHT22;4919;48.792;9.202;2022-10-30T18:04:40;13.50;99.90
9760;DHT22;4919;48.792;9.202;2022-10-30T18:07:10;13.50;99.90
9760;DHT22;4919;48.792;9.202;2022-10-30T18:09:38;13.50;99.90
9760;DHT22;4919;48.792;9.202;2022-10-30T18:12:09;13.40;99.90
9760;DHT22;4919;48.792;9.202;2022-10-30T18:14:36;13.30;99.90
9760;DHT22;4919;48.792;9.202;2022-10-30T18:17:03;13.30;99.90
9760;DHT22;4919;48.792;9.202;2022-10-30T18:19:30;13.20;99.90
9760;DHT22;4919;48.792;9.202;2022-10-30T18:21:57;13.20;99.90
9760;DHT22;4919;48.792;9.202;2022-10-30T18:24:24;13.30;99.90
9760;DHT22;4919;48.792;9.202;2022-10-30T18:26:50;13.20;99.90
9760;DHT22;4919;48.792;9.202;2022-10-30T18:29:19;13.20;99.90
9760;DHT22;4919;48.792;9.202;2022-10-30T18:31:46;13.10;99.90
9760;DHT22;4919;48.792;9.202;2022-10-30T18:34:15;13.10;99.90
9760;DHT22;4919;48.792;9.202;2022-10-30T18:36:42;13.10;99.90
9760;DHT22;4919;48.792;9.202;2022-10-30T18:39:09;13.00;99.90
9760;DHT22;4919;48.792;9.202;2022-10-30T18:41:44;13.00;99.90
9760;DHT22;4919;48.792;9.202;2022-10-30T18:44:15;12.90;99.90
9760;DHT22;4919;48.792;9.202;2022-10-30T18:46:43;12.80;99.90
9760;DHT22;4919;48.792;9.202;2022-10-30T18:49:10;12.80;99.90
9760;DHT22;4919;48.792;9.202;2022-10-30T18:51:37;12.70;99.90
9760;DHT22;4919;48.792;9.202;2022-10-30T18:54:15;12.70;99.90
9760;DHT22;4919;48.792;9.202;2022-10-30T18:56:42;12.80;99.90
9760;DHT22;4919;48.792;9.202;2022-10-30T18:59:09;12.80;99.90
9760;DHT22;4919;48.792;9.202;2022-10-30T19:01:36;12.80;99.90